Les Cayes, Haiti
Current Conditions -  °F | °C
As of 11:08 PM on Saturday 25 Oct 2014 (Local Time) from MUGM Reporting Station
Light Rain Light Rain  
Wind Chill: 75°   Ceiling: 2000
Heat Index: 75°   Visibility: 3mi
Dew Point: 75°   Wind: 13mph
Humidity: 100%   Direction: 340°NNW
Pressure: 29.87"   Gusts: NA
Location:  18.2°N, 73.75°W
Report Text: MUGM 260408Z 34011KT 4800 -RA BR OVC020 24/24 A2987 RMK P0008
Loading
Personal Weather Stations






























Interactive Weather Map
Tropical Storm Tracking
New forecast layout! Learn more

10-Day Weather Forecast

Advertisements
Track Severe Weather on mobile